Time;durP1;ratioP1;P1;durP2;ratioP2;P2;SDS_P1;SDS_P2;PMS_P1;PMS_P2;Temp;Humidity;BMP_temperature;BMP_pressure;BME280_temperature;BME280_humidity;BME280_pressure;Samples;Min_cycle;Max_cycle;Signal;HPM_P1;HPM_P2
2021/09/24 00:01:37;;;;;;;;;;;13.80;99.90;;;;;;5099055;28;19931;-88
2021/09/24 00:04:06;;;;;;;;;;;13.80;99.90;;;;;;5099101;28;19950;-86
2021/09/24 00:06:32;;;;;;;;;;;13.80;99.90;;;;;;5098626;28;20029;-87
2021/09/24 00:08:59;;;;;;;;;;;13.80;99.90;;;;;;5098984;28;19974;-87
2021/09/24 00:11:25;;;;;;;;;;;13.70;99.90;;;;;;5099264;28;19934;-88
2021/09/24 00:13:52;;;;;;;;;;;13.70;99.90;;;;;;5097959;28;19928;-86
2021/09/24 00:16:20;;;;;;;;;;;13.70;99.90;;;;;;5096673;28;19953;-88
2021/09/24 00:18:46;;;;;;;;;;;13.60;99.90;;;;;;5098036;28;19957;-89
2021/09/24 00:21:13;;;;;;;;;;;13.60;99.90;;;;;;5098547;28;19931;-87
2021/09/24 00:23:39;;;;;;;;;;;13.60;99.90;;;;;;5099924;28;19950;-84
2021/09/24 00:26:06;;;;;;;;;;;13.60;99.90;;;;;;5099554;28;20015;-86
2021/09/24 00:28:32;;;;;;;;;;;13.60;99.90;;;;;;5099851;28;19984;-87
2021/09/24 00:30:59;;;;;;;;;;;13.50;99.90;;;;;;5098241;28;19929;-86
2021/09/24 00:33:28;;;;;;;;;;;13.50;99.90;;;;;;5100291;28;19939;-87
2021/09/24 00:35:55;;;;;;;;;;;13.50;99.90;;;;;;5100576;28;19929;-86
2021/09/24 00:38:22;;;;;;;;;;;13.50;99.90;;;;;;5100102;28;19940;-87
2021/09/24 00:40:48;;;;;;;;;;;13.50;99.90;;;;;;5097709;28;19977;-88
2021/09/24 00:43:15;;;;;;;;;;;13.50;99.90;;;;;;5098998;28;19923;-87
2021/09/24 00:45:41;;;;;;;;;;;13.50;99.90;;;;;;5096997;28;19945;-88
2021/09/24 00:48:08;;;;;;;;;;;13.40;99.90;;;;;;5097430;28;19965;-88
2021/09/24 00:50:36;;;;;;;;;;;13.40;99.90;;;;;;5095363;28;19955;-86
2021/09/24 00:53:02;;;;;;;;;;;13.40;99.90;;;;;;5098739;28;19976;-86
2021/09/24 00:55:29;;;;;;;;;;;13.40;99.90;;;;;;5098156;28;19951;-87
2021/09/24 00:57:56;;;;;;;;;;;13.30;99.90;;;;;;5099371;28;19954;-87
2021/09/24 01:00:22;;;;;;;;;;;13.30;99.90;;;;;;5098464;28;19942;-89
2021/09/24 01:02:49;;;;;;;;;;;13.40;99.90;;;;;;5096474;28;19946;-88
2021/09/24 01:05:16;;;;;;;;;;;13.30;99.90;;;;;;5099756;28;19952;-88
2021/09/24 01:07:44;;;;;;;;;;;13.30;99.90;;;;;;5095574;28;19951;-89
2021/09/24 01:10:11;;;;;;;;;;;13.30;99.90;;;;;;5097661;28;19951;-87
2021/09/24 01:12:38;;;;;;;;;;;13.30;99.90;;;;;;5095219;28;20018;-87
2021/09/24 01:15:06;;;;;;;;;;;12.40;99.90;;;;;;5098697;28;19931;-86
2021/09/24 01:17:32;;;;;;;;;;;13.20;99.90;;;;;;5099110;28;19932;-87
2021/09/24 01:19:59;;;;;;;;;;;13.30;99.90;;;;;;5098350;28;19934;-85
2021/09/24 01:22:27;;;;;;;;;;;13.30;99.90;;;;;;5098712;28;19945;-87
2021/09/24 01:24:53;;;;;;;;;;;13.30;99.90;;;;;;5098514;28;19925;-85
2021/09/24 01:27:20;;;;;;;;;;;13.30;99.90;;;;;;5096589;28;19973;-88
2021/09/24 01:29:49;;;;;;;;;;;13.20;99.90;;;;;;5095784;28;19984;-87
2021/09/24 01:32:16;;;;;;;;;;;13.20;99.90;;;;;;5098313;28;19962;-87
2021/09/24 01:34:42;;;;;;;;;;;13.20;99.90;;;;;;5097955;28;19952;-87
2021/09/24 01:37:09;;;;;;;;;;;13.30;99.90;;;;;;5097363;28;19927;-87
2021/09/24 01:39:37;;;;;;;;;;;13.30;99.90;;;;;;5097631;28;19989;-86
2021/09/24 01:42:03;;;;;;;;;;;13.30;99.90;;;;;;5098077;28;19931;-87
2021/09/24 01:44:30;;;;;;;;;;;13.30;99.90;;;;;;5097544;28;19943;-86
2021/09/24 01:46:56;;;;;;;;;;;13.40;99.90;;;;;;5099203;28;19936;-86
2021/09/24 01:49:23;;;;;;;;;;;13.40;99.90;;;;;;5099495;28;19998;-86
2021/09/24 01:51:50;;;;;;;;;;;13.50;99.90;;;;;;5099547;28;19950;-86
2021/09/24 01:54:17;;;;;;;;;;;13.40;99.90;;;;;;5099454;28;19951;-85
2021/09/24 01:56:45;;;;;;;;;;;13.50;99.90;;;;;;5097995;28;19972;-86
2021/09/24 01:59:12;;;;;;;;;;;13.40;99.90;;;;;;5097798;28;19959;-87
2021/09/24 02:01:38;;;;;;;;;;;13.40;99.90;;;;;;5097562;28;19923;-87
2021/09/24 02:04:05;;;;;;;;;;;13.30;99.90;;;;;;5097454;28;19931;-87
2021/09/24 02:06:32;;;;;;;;;;;13.40;99.90;;;;;;5097450;28;19970;-86
2021/09/24 02:08:58;;;;;;;;;;;13.40;99.90;;;;;;5097997;28;19959;-85
2021/09/24 02:11:25;;;;;;;;;;;13.40;99.90;;;;;;5096534;28;19939;-85
2021/09/24 02:13:53;;;;;;;;;;;13.40;99.90;;;;;;5098116;28;19935;-86
2021/09/24 02:16:19;;;;;;;;;;;13.30;99.90;;;;;;5098547;28;19928;-85
2021/09/24 02:18:46;;;;;;;;;;;13.30;99.90;;;;;;5098407;28;19943;-85
2021/09/24 02:21:13;;;;;;;;;;;13.30;99.90;;;;;;5098143;28;19952;-85
2021/09/24 02:23:39;;;;;;;;;;;13.30;99.90;;;;;;5097917;28;19959;-87
2021/09/24 02:26:06;;;;;;;;;;;13.30;99.90;;;;;;5098386;28;19964;-86
2021/09/24 02:28:33;;;;;;;;;;;13.30;99.90;;;;;;5097846;28;19975;-86
2021/09/24 02:31:00;;;;;;;;;;;13.30;99.90;;;;;;5097905;28;19944;-87
2021/09/24 02:33:27;;;;;;;;;;;13.30;99.90;;;;;;5097929;28;19961;-85
2021/09/24 02:35:53;;;;;;;;;;;13.30;99.90;;;;;;5098187;28;19931;-86
2021/09/24 02:38:20;;;;;;;;;;;13.30;99.90;;;;;;5096009;28;19959;-87
2021/09/24 02:40:46;;;;;;;;;;;13.30;99.90;;;;;;5094359;28;19967;-87
2021/09/24 02:43:13;;;;;;;;;;;13.40;99.90;;;;;;5095283;28;19941;-87
2021/09/24 02:45:39;;;;;;;;;;;13.30;99.90;;;;;;5084502;28;19967;-86
2021/09/24 02:48:07;;;;;;;;;;;13.30;99.90;;;;;;5086127;28;19963;-86
2021/09/24 02:50:34;;;;;;;;;;;13.20;99.90;;;;;;5085355;28;19944;-86
2021/09/24 02:53:00;;;;;;;;;;;13.30;99.90;;;;;;5086100;28;19951;-85
2021/09/24 02:55:27;;;;;;;;;;;13.30;99.90;;;;;;5091100;28;19943;-89
2021/09/24 02:57:53;;;;;;;;;;;13.30;99.90;;;;;;5095919;28;19964;-87
2021/09/24 03:00:20;;;;;;;;;;;13.30;99.90;;;;;;5096432;28;19930;-87
2021/09/24 03:02:46;;;;;;;;;;;13.30;99.90;;;;;;5096664;28;19941;-86
2021/09/24 03:05:14;;;;;;;;;;;13.40;99.90;;;;;;5088861;28;19993;-87
2021/09/24 03:07:40;;;;;;;;;;;13.40;99.90;;;;;;5087635;28;19987;-87
2021/09/24 03:10:08;;;;;;;;;;;13.30;99.90;;;;;;5095200;28;19946;-88
2021/09/24 03:12:34;;;;;;;;;;;13.30;99.90;;;;;;5093466;28;19946;-86
2021/09/24 03:15:01;;;;;;;;;;;13.30;99.90;;;;;;5095258;28;19946;-87
2021/09/24 03:17:27;;;;;;;;;;;13.30;99.90;;;;;;5095933;28;19940;-87
2021/09/24 03:19:54;;;;;;;;;;;13.30;99.90;;;;;;5094441;28;19968;-86
2021/09/24 03:22:22;;;;;;;;;;;13.30;99.90;;;;;;5093721;28;19965;-86
2021/09/24 03:24:48;;;;;;;;;;;13.30;99.90;;;;;;5095768;28;19949;-85
2021/09/24 03:27:17;;;;;;;;;;;13.30;99.90;;;;;;5095169;28;19951;-87
2021/09/24 03:29:43;;;;;;;;;;;13.40;99.90;;;;;;5094542;28;19940;-87
2021/09/24 03:32:10;;;;;;;;;;;13.40;99.90;;;;;;5092924;28;19943;-87
2021/09/24 03:34:37;;;;;;;;;;;13.30;99.90;;;;;;5097347;28;19968;-87
2021/09/24 03:37:03;;;;;;;;;;;13.30;99.90;;;;;;5098614;28;19951;-87
2021/09/24 03:39:31;;;;;;;;;;;13.30;99.90;;;;;;5099318;28;19958;-87
2021/09/24 03:41:57;;;;;;;;;;;13.20;99.90;;;;;;5100490;28;19952;-87
2021/09/24 03:44:24;;;;;;;;;;;13.30;99.90;;;;;;5099664;28;19956;-87
2021/09/24 03:46:51;;;;;;;;;;;13.30;99.90;;;;;;5100351;28;19945;-87
2021/09/24 03:49:17;;;;;;;;;;;13.30;99.90;;;;;;5097668;28;19953;-87
2021/09/24 03:51:44;;;;;;;;;;;13.30;99.90;;;;;;5098850;28;19941;-86
2021/09/24 03:54:10;;;;;;;;;;;13.30;99.90;;;;;;5097333;28;19964;-88
2021/09/24 03:56:38;;;;;;;;;;;13.30;99.90;;;;;;5096570;28;19954;-86
2021/09/24 03:59:04;;;;;;;;;;;13.30;99.90;;;;;;5097041;28;19938;-87
2021/09/24 04:01:31;;;;;;;;;;;13.10;99.90;;;;;;5098867;28;19928;-87
2021/09/24 04:03:57;;;;;;;;;;;13.30;99.90;;;;;;5094228;28;19952;-88
2021/09/24 04:06:24;;;;;;;;;;;13.20;99.90;;;;;;5093069;28;19941;-88
2021/09/24 04:08:50;;;;;;;;;;;13.30;99.90;;;;;;5093138;28;19986;-88
2021/09/24 04:11:17;;;;;;;;;;;13.30;99.90;;;;;;5096950;28;19949;-86
2021/09/24 04:13:44;;;;;;;;;;;13.20;99.90;;;;;;5097786;28;19934;-87
2021/09/24 04:16:11;;;;;;;;;;;13.20;99.90;;;;;;5100424;28;19988;-87
2021/09/24 04:18:37;;;;;;;;;;;13.10;99.90;;;;;;5100401;28;19958;-87
2021/09/24 04:21:04;;;;;;;;;;;12.90;99.90;;;;;;5099911;28;19958;-87
2021/09/24 04:23:30;;;;;;;;;;;13.20;99.90;;;;;;5094439;28;19943;-89
2021/09/24 04:25:57;;;;;;;;;;;13.20;99.90;;;;;;5091930;28;19971;-86
2021/09/24 04:28:23;;;;;;;;;;;13.10;99.90;;;;;;5103540;22;19958;-85
2021/09/24 04:30:51;;;;;;;;;;;13.20;99.90;;;;;;5084129;28;19961;-85
2021/09/24 04:33:18;;;;;;;;;;;13.10;99.90;;;;;;5088558;28;19943;-85
2021/09/24 04:35:44;;;;;;;;;;;13.10;99.90;;;;;;5093494;28;19942;-85
2021/09/24 04:38:11;;;;;;;;;;;13.10;99.90;;;;;;5095653;28;19961;-85
2021/09/24 04:40:38;;;;;;;;;;;13.10;99.90;;;;;;5099203;28;19946;-86
2021/09/24 04:43:05;;;;;;;;;;;13.10;99.90;;;;;;5100812;28;19952;-85
2021/09/24 04:45:31;;;;;;;;;;;13.10;99.90;;;;;;5098526;28;19934;-84
2021/09/24 04:47:59;;;;;;;;;;;13.10;99.90;;;;;;5097290;28;20399;-85
2021/09/24 04:50:26;;;;;;;;;;;13.10;99.90;;;;;;5088261;28;19944;-85
2021/09/24 04:52:53;;;;;;;;;;;13.10;99.90;;;;;;5088522;28;19938;-84
2021/09/24 04:55:20;;;;;;;;;;;13.10;99.90;;;;;;5084673;28;19942;-85
2021/09/24 04:57:46;;;;;;;;;;;13.20;99.90;;;;;;5082351;28;19945;-85
2021/09/24 05:00:13;;;;;;;;;;;13.10;99.90;;;;;;5083056;28;19965;-85
2021/09/24 05:02:40;;;;;;;;;;;13.20;99.90;;;;;;5087788;28;19948;-85
2021/09/24 05:05:10;;;;;;;;;;;13.20;99.90;;;;;;5082353;28;19966;-85
2021/09/24 05:07:37;;;;;;;;;;;13.20;99.90;;;;;;5084250;28;19993;-84
2021/09/24 05:10:04;;;;;;;;;;;13.20;99.90;;;;;;5085955;28;19963;-84
2021/09/24 05:12:31;;;;;;;;;;;13.10;99.90;;;;;;5089256;28;20325;-84
2021/09/24 05:14:57;;;;;;;;;;;13.10;99.90;;;;;;5085827;28;19946;-84
2021/09/24 05:17:24;;;;;;;;;;;13.20;99.90;;;;;;5083847;28;20001;-85
2021/09/24 05:19:50;;;;;;;;;;;13.10;99.90;;;;;;5088830;28;19963;-83
2021/09/24 05:22:18;;;;;;;;;;;13.10;99.90;;;;;;5093161;28;19946;-84
2021/09/24 05:24:45;;;;;;;;;;;13.10;99.90;;;;;;5095526;28;19943;-84
2021/09/24 05:27:11;;;;;;;;;;;13.10;99.90;;;;;;5089223;28;19948;-85
2021/09/24 05:29:38;;;;;;;;;;;13.10;99.90;;;;;;5081707;28;19964;-85
2021/09/24 05:32:05;;;;;;;;;;;13.20;99.90;;;;;;5084683;28;19942;-84
2021/09/24 05:34:31;;;;;;;;;;;13.10;99.90;;;;;;5084341;28;19969;-84
2021/09/24 05:36:58;;;;;;;;;;;13.10;99.90;;;;;;5080799;28;20317;-85
2021/09/24 05:39:26;;;;;;;;;;;13.20;99.90;;;;;;5080727;28;19966;-85
2021/09/24 05:41:52;;;;;;;;;;;13.10;99.90;;;;;;5079689;28;19991;-85
2021/09/24 05:44:19;;;;;;;;;;;13.10;99.90;;;;;;5078848;28;19946;-85
2021/09/24 05:46:46;;;;;;;;;;;13.10;99.90;;;;;;5080546;28;19943;-85
2021/09/24 05:49:12;;;;;;;;;;;13.20;99.90;;;;;;5078874;28;19972;-85
2021/09/24 05:51:39;;;;;;;;;;;13.10;99.90;;;;;;5080054;28;19982;-84
2021/09/24 05:54:05;;;;;;;;;;;13.10;99.90;;;;;;5081699;28;19948;-84
2021/09/24 05:56:33;;;;;;;;;;;13.10;99.90;;;;;;5080362;28;19943;-85
2021/09/24 05:59:00;;;;;;;;;;;13.10;99.90;;;;;;5080006;28;20378;-85
2021/09/24 06:01:27;;;;;;;;;;;13.00;99.90;;;;;;5080251;28;19972;-85
2021/09/24 06:03:54;;;;;;;;;;;13.10;99.90;;;;;;5081419;28;19942;-84
2021/09/24 06:06:20;;;;;;;;;;;13.10;99.90;;;;;;5081617;28;19951;-85
2021/09/24 06:08:50;;;;;;;;;;;13.10;99.90;;;;;;5080098;28;20363;-85
2021/09/24 06:11:16;;;;;;;;;;;13.10;99.90;;;;;;5080673;28;19966;-85
2021/09/24 06:13:44;;;;;;;;;;;13.00;99.90;;;;;;5080244;28;20318;-85
2021/09/24 06:16:11;;;;;;;;;;;13.00;99.90;;;;;;5080432;28;19940;-84
2021/09/24 06:18:38;;;;;;;;;;;13.00;99.90;;;;;;5081053;28;19957;-84
2021/09/24 06:21:04;;;;;;;;;;;13.00;99.90;;;;;;5080021;28;20066;-84
2021/09/24 06:23:31;;;;;;;;;;;13.00;99.90;;;;;;5080902;28;19947;-85
2021/09/24 06:25:58;;;;;;;;;;;13.10;99.90;;;;;;5080362;28;19996;-84
2021/09/24 06:28:25;;;;;;;;;;;13.00;99.90;;;;;;5080349;28;19963;-84
2021/09/24 06:30:53;;;;;;;;;;;13.00;99.90;;;;;;5082130;28;19948;-84
2021/09/24 06:33:19;;;;;;;;;;;13.00;99.90;;;;;;5080392;28;20399;-85
2021/09/24 06:35:46;;;;;;;;;;;13.00;99.90;;;;;;5081732;28;19943;-85
2021/09/24 06:38:12;;;;;;;;;;;13.10;99.90;;;;;;5080434;28;19964;-85
2021/09/24 06:40:39;;;;;;;;;;;13.00;99.90;;;;;;5080368;28;19942;-84
2021/09/24 06:43:05;;;;;;;;;;;13.00;99.90;;;;;;5080873;28;19988;-85
2021/09/24 06:45:32;;;;;;;;;;;13.10;99.90;;;;;;5084237;28;19943;-85
2021/09/24 06:48:00;;;;;;;;;;;13.10;99.90;;;;;;5083238;28;19958;-84
2021/09/24 06:50:27;;;;;;;;;;;13.00;99.90;;;;;;5082673;28;19939;-85
2021/09/24 06:52:53;;;;;;;;;;;13.10;99.90;;;;;;5082279;28;20042;-85
2021/09/24 06:55:22;;;;;;;;;;;13.10;99.90;;;;;;5082535;28;19946;-85
2021/09/24 06:57:48;;;;;;;;;;;13.30;99.90;;;;;;5084657;28;19942;-85
2021/09/24 07:00:15;;;;;;;;;;;13.10;99.90;;;;;;5086106;28;19947;-85
2021/09/24 07:02:42;;;;;;;;;;;13.10;99.90;;;;;;5092015;28;19943;-84
2021/09/24 07:05:10;;;;;;;;;;;13.10;99.90;;;;;;5085253;28;20007;-84
2021/09/24 07:07:37;;;;;;;;;;;13.10;99.90;;;;;;5083729;28;20409;-85
2021/09/24 07:10:03;;;;;;;;;;;13.20;99.90;;;;;;5086258;28;19966;-85
2021/09/24 07:12:30;;;;;;;;;;;13.20;99.90;;;;;;5085349;28;19944;-85
2021/09/24 07:14:56;;;;;;;;;;;13.20;99.90;;;;;;5083822;28;20330;-85
2021/09/24 07:17:23;;;;;;;;;;;13.30;99.90;;;;;;5082656;28;19991;-85
2021/09/24 07:19:49;;;;;;;;;;;13.30;99.90;;;;;;5100046;28;19946;-85
2021/09/24 07:22:18;;;;;;;;;;;13.30;99.90;;;;;;5097247;28;19950;-85
2021/09/24 07:24:44;;;;;;;;;;;13.30;99.90;;;;;;5088836;28;19973;-85
2021/09/24 07:27:11;;;;;;;;;;;13.40;99.90;;;;;;5086555;28;19948;-85
2021/09/24 07:29:38;;;;;;;;;;;13.50;99.90;;;;;;5085700;28;19964;-86
2021/09/24 07:32:04;;;;;;;;;;;13.50;99.90;;;;;;5084072;28;19946;-86
2021/09/24 07:34:31;;;;;;;;;;;13.60;99.90;;;;;;5083768;28;19983;-86
2021/09/24 07:36:58;;;;;;;;;;;13.60;99.90;;;;;;5081549;28;19943;-86
2021/09/24 07:39:25;;;;;;;;;;;13.70;99.90;;;;;;5080384;28;19980;-86
2021/09/24 07:41:52;;;;;;;;;;;13.70;99.90;;;;;;5081649;28;19964;-86
2021/09/24 07:44:19;;;;;;;;;;;14.20;99.90;;;;;;5079837;28;19940;-86
2021/09/24 07:46:47;;;;;;;;;;;13.80;99.90;;;;;;5082376;28;19942;-85
2021/09/24 07:49:17;;;;;;;;;;;14.20;99.90;;;;;;5080779;28;19958;-86
2021/09/24 07:51:43;;;;;;;;;;;13.90;99.90;;;;;;5082809;28;19942;-85
2021/09/24 07:54:10;;;;;;;;;;;14.00;99.90;;;;;;5086127;28;19942;-85
2021/09/24 07:56:38;;;;;;;;;;;14.00;99.90;;;;;;5079141;28;20380;-85
2021/09/24 07:59:04;;;;;;;;;;;14.10;99.90;;;;;;5081438;28;19957;-86
2021/09/24 08:01:31;;;;;;;;;;;14.10;99.90;;;;;;5079477;28;20404;-85
2021/09/24 08:03:57;;;;;;;;;;;14.20;99.90;;;;;;5079491;28;20405;-85
2021/09/24 08:06:24;;;;;;;;;;;14.20;99.90;;;;;;5079770;28;19941;-85
2021/09/24 08:08:50;;;;;;;;;;;14.30;99.90;;;;;;5080518;28;20457;-85
2021/09/24 08:11:17;;;;;;;;;;;14.30;99.90;;;;;;5080811;28;20324;-85
2021/09/24 08:13:46;;;;;;;;;;;14.40;99.90;;;;;;5080878;28;20022;-85
2021/09/24 08:16:12;;;;;;;;;;;14.40;99.90;;;;;;5080686;28;19979;-85
2021/09/24 08:18:39;;;;;;;;;;;14.50;99.90;;;;;;5079633;28;19958;-84
2021/09/24 08:21:05;;;;;;;;;;;14.60;99.90;;;;;;5079800;28;20003;-86
2021/09/24 08:23:32;;;;;;;;;;;14.60;99.90;;;;;;5080545;28;19939;-85
2021/09/24 08:25:58;;;;;;;;;;;14.70;99.90;;;;;;5080243;28;20054;-85
2021/09/24 08:28:25;;;;;;;;;;;14.70;99.90;;;;;;5079372;28;19963;-85
2021/09/24 08:30:53;;;;;;;;;;;14.80;99.90;;;;;;5078876;28;19973;-85
2021/09/24 08:33:19;;;;;;;;;;;14.80;99.90;;;;;;5079615;28;19943;-85
2021/09/24 08:35:46;;;;;;;;;;;14.80;99.90;;;;;;5079481;28;19940;-86
2021/09/24 08:38:13;;;;;;;;;;;14.90;99.90;;;;;;5079734;28;19956;-84
2021/09/24 08:40:40;;;;;;;;;;;15.00;99.90;;;;;;5081952;28;20422;-84
2021/09/24 08:43:07;;;;;;;;;;;15.00;99.90;;;;;;5092222;28;19941;-84
2021/09/24 08:45:34;;;;;;;;;;;15.00;99.90;;;;;;5097985;28;19940;-84
2021/09/24 08:48:03;;;;;;;;;;;15.00;99.90;;;;;;5097719;28;20402;-84
2021/09/24 08:50:31;;;;;;;;;;;15.00;99.90;;;;;;5098572;28;19955;-84
2021/09/24 08:52:58;;;;;;;;;;;14.90;99.90;;;;;;5094895;28;20000;-84
2021/09/24 08:55:24;;;;;;;;;;;14.50;99.90;;;;;;5085639;28;19958;-85
2021/09/24 08:57:52;;;;;;;;;;;15.10;99.90;;;;;;5089203;28;19969;-85
2021/09/24 09:00:19;;;;;;;;;;;15.20;99.90;;;;;;5081545;28;20368;-85
2021/09/24 09:02:51;;;;;;;;;;;15.20;99.90;;;;;;5084251;28;19944;-85
2021/09/24 09:05:19;;;;;;;;;;;15.20;99.90;;;;;;5083417;28;19938;-85
2021/09/24 09:07:45;;;;;;;;;;;15.30;99.90;;;;;;5080137;28;19953;-85
2021/09/24 09:10:12;;;;;;;;;;;15.30;99.90;;;;;;5084639;28;19990;-85
2021/09/24 09:12:39;;;;;;;;;;;15.40;99.90;;;;;;5079576;28;20010;-85
2021/09/24 09:15:08;;;;;;;;;;;15.40;99.90;;;;;;5095448;28;19955;-85
2021/09/24 09:17:35;;;;;;;;;;;15.60;99.90;;;;;;5099114;28;19924;-85
2021/09/24 09:20:14;;;;;;;;;;;15.70;99.90;;;;;;5099275;28;19955;-85
2021/09/24 09:22:43;;;;;;;;;;;15.70;99.90;;;;;;5099758;27;19936;-85
2021/09/24 09:25:13;;;;;;;;;;;15.80;99.90;;;;;;5099212;28;19926;-85
2021/09/24 09:27:39;;;;;;;;;;;15.80;99.90;;;;;;5097992;28;19922;-85
2021/09/24 09:30:12;;;;;;;;;;;15.80;99.90;;;;;;5080480;28;20043;-85
2021/09/24 09:32:39;;;;;;;;;;;15.80;99.90;;;;;;5078772;28;20302;-85
2021/09/24 09:35:05;;;;;;;;;;;15.90;99.90;;;;;;5080403;28;19949;-84
2021/09/24 09:37:34;;;;;;;;;;;15.80;99.90;;;;;;5061118;28;19947;-85
2021/09/24 09:40:05;;;;;;;;;;;15.80;99.90;;;;;;5079080;28;19959;-85
2021/09/24 09:42:32;;;;;;;;;;;15.90;99.90;;;;;;5078274;28;19980;-85
2021/09/24 09:44:59;;;;;;;;;;;16.00;99.90;;;;;;5081270;28;19939;-85
2021/09/24 09:47:30;;;;;;;;;;;16.00;99.90;;;;;;5090054;28;20006;-84
2021/09/24 09:50:04;;;;;;;;;;;16.00;99.90;;;;;;5089540;28;19961;-84
2021/09/24 09:52:32;;;;;;;;;;;16.10;99.90;;;;;;5092362;28;19959;-84
2021/09/24 09:55:00;;;;;;;;;;;16.10;99.90;;;;;;5090206;28;19940;-84
2021/09/24 09:57:28;;;;;;;;;;;16.20;99.90;;;;;;5096401;28;19911;-84
2021/09/24 09:59:56;;;;;;;;;;;16.30;99.90;;;;;;5091901;28;19965;-85
2021/09/24 10:02:24;;;;;;;;;;;16.30;99.90;;;;;;5084026;28;20038;-84
2021/09/24 10:04:52;;;;;;;;;;;16.30;99.90;;;;;;5092251;28;19939;-84
2021/09/24 10:07:19;;;;;;;;;;;16.30;99.90;;;;;;5079474;28;19945;-84
2021/09/24 10:09:46;;;;;;;;;;;16.30;99.90;;;;;;5080710;28;19966;-85
2021/09/24 10:12:17;;;;;;;;;;;16.30;99.90;;;;;;5078055;28;19943;-85
2021/09/24 10:14:44;;;;;;;;;;;16.30;99.90;;;;;;5079387;28;19947;-85
2021/09/24 10:17:11;;;;;;;;;;;16.30;99.90;;;;;;5077738;28;19944;-85
2021/09/24 10:19:37;;;;;;;;;;;16.30;99.90;;;;;;5084456;28;20300;-85
2021/09/24 10:22:04;;;;;;;;;;;16.40;99.90;;;;;;5078555;28;19942;-85
2021/09/24 10:24:31;;;;;;;;;;;16.30;99.90;;;;;;5077337;28;19984;-85
2021/09/24 10:26:58;;;;;;;;;;;16.30;99.90;;;;;;5077523;28;19996;-85
2021/09/24 10:29:29;;;;;;;;;;;16.40;99.90;;;;;;5077458;28;19964;-85
2021/09/24 10:32:11;;;;;;;;;;;16.40;99.90;;;;;;5076870;28;20145;-85
2021/09/24 10:34:51;;;;;;;;;;;16.40;99.90;;;;;;5076660;28;19949;-85
2021/09/24 10:37:17;;;;;;;;;;;16.50;99.90;;;;;;5083538;28;19938;-84
2021/09/24 10:39:47;;;;;;;;;;;16.50;99.90;;;;;;5087259;28;19953;-85
2021/09/24 10:42:17;;;;;;;;;;;16.60;99.90;;;;;;5076825;28;19941;-85
2021/09/24 10:44:56;;;;;;;;;;;16.50;99.90;;;;;;5078402;28;20021;-85
2021/09/24 10:47:37;;;;;;;;;;;16.50;99.90;;;;;;5080664;28;19935;-85
2021/09/24 10:50:27;;;;;;;;;;;16.50;99.90;;;;;;5075272;28;19965;-85
2021/09/24 10:53:09;;;;;;;;;;;16.50;99.90;;;;;;5075919;28;19953;-86
2021/09/24 10:55:35;;;;;;;;;;;16.60;99.90;;;;;;5076892;28;19940;-86
2021/09/24 10:58:02;;;;;;;;;;;16.60;99.90;;;;;;5076194;28;20021;-85
2021/09/24 11:00:30;;;;;;;;;;;16.60;99.90;;;;;;5077724;28;19985;-85
2021/09/24 11:03:09;;;;;;;;;;;16.60;99.90;;;;;;5077886;28;19992;-85
2021/09/24 11:05:57;;;;;;;;;;;16.70;99.90;;;;;;5077606;28;19946;-86
2021/09/24 11:08:43;;;;;;;;;;;16.70;99.90;;;;;;5081994;28;19958;-86
2021/09/24 11:11:11;;;;;;;;;;;16.60;99.90;;;;;;5092068;28;19985;-86
2021/09/24 11:13:41;;;;;;;;;;;16.60;99.90;;;;;;5089309;28;19943;-86
2021/09/24 11:16:09;;;;;;;;;;;16.60;99.90;;;;;;5098006;28;19940;-86
2021/09/24 11:18:46;;;;;;;;;;;16.40;99.90;;;;;;5097737;28;19955;-85
2021/09/24 11:21:14;;;;;;;;;;;16.40;99.90;;;;;;5095447;28;19941;-85
2021/09/24 11:23:41;;;;;;;;;;;16.40;99.90;;;;;;5082558;28;20035;-85
2021/09/24 11:26:12;;;;;;;;;;;16.40;99.90;;;;;;5060268;28;20387;-86
2021/09/24 11:28:39;;;;;;;;;;;16.50;99.90;;;;;;5076601;28;19961;-85
2021/09/24 11:31:05;;;;;;;;;;;16.50;99.90;;;;;;5079549;28;19959;-85
2021/09/24 11:33:39;;;;;;;;;;;16.50;99.90;;;;;;5093158;28;19956;-85
2021/09/24 11:36:05;;;;;;;;;;;16.50;99.90;;;;;;5098596;28;19942;-85
2021/09/24 11:38:33;;;;;;;;;;;16.60;99.90;;;;;;5100865;28;19980;-85
2021/09/24 11:41:00;;;;;;;;;;;16.70;99.90;;;;;;5101129;28;19934;-85
2021/09/24 11:43:27;;;;;;;;;;;16.80;99.90;;;;;;5100544;28;19944;-85
2021/09/24 11:45:54;;;;;;;;;;;16.80;99.90;;;;;;5095235;28;19940;-85
2021/09/24 11:48:31;;;;;;;;;;;16.70;99.90;;;;;;5084927;28;19958;-85
2021/09/24 11:50:58;;;;;;;;;;;16.60;99.90;;;;;;5084322;28;19952;-85
2021/09/24 11:53:24;;;;;;;;;;;16.60;99.90;;;;;;5082851;28;19987;-85
2021/09/24 11:55:52;;;;;;;;;;;16.60;99.90;;;;;;5082201;28;19948;-85
2021/09/24 11:58:23;;;;;;;;;;;16.60;99.90;;;;;;5085745;28;19957;-84
2021/09/24 12:00:51;;;;;;;;;;;16.60;99.90;;;;;;5087118;28;19942;-84
2021/09/24 12:03:20;;;;;;;;;;;16.50;99.90;;;;;;5086858;28;19932;-84
2021/09/24 12:05:55;;;;;;;;;;;16.60;99.90;;;;;;5088156;28;19958;-84
2021/09/24 12:08:23;;;;;;;;;;;16.60;99.90;;;;;;5083893;28;19957;-85
2021/09/24 12:11:05;;;;;;;;;;;16.60;99.90;;;;;;5081409;28;19992;-84
2021/09/24 12:13:49;;;;;;;;;;;16.60;99.90;;;;;;5081119;28;19942;-85
2021/09/24 12:16:18;;;;;;;;;;;16.60;99.90;;;;;;5079289;28;20059;-84
2021/09/24 12:18:46;;;;;;;;;;;16.70;99.90;;;;;;5094610;28;19950;-84
2021/09/24 12:21:13;;;;;;;;;;;16.70;99.90;;;;;;5081560;28;20010;-85
2021/09/24 12:23:39;;;;;;;;;;;16.80;99.90;;;;;;5080387;28;19989;-85
2021/09/24 12:26:08;;;;;;;;;;;16.90;99.90;;;;;;5080938;28;19981;-85
2021/09/24 12:28:35;;;;;;;;;;;16.90;99.90;;;;;;5079771;28;19960;-85
2021/09/24 12:31:02;;;;;;;;;;;16.90;99.90;;;;;;5078601;28;19952;-85
2021/09/24 12:33:29;;;;;;;;;;;16.90;99.90;;;;;;5079244;28;19944;-85
2021/09/24 12:35:56;;;;;;;;;;;16.90;99.90;;;;;;5079125;28;20378;-85
2021/09/24 12:38:26;;;;;;;;;;;16.90;99.90;;;;;;5078765;28;19985;-85
2021/09/24 12:41:05;;;;;;;;;;;16.80;99.90;;;;;;5082263;28;19946;-84
2021/09/24 12:43:34;;;;;;;;;;;16.70;99.90;;;;;;5084810;28;19974;-85
2021/09/24 12:46:00;;;;;;;;;;;16.70;99.90;;;;;;5085922;28;19988;-85
2021/09/24 12:48:33;;;;;;;;;;;16.70;99.90;;;;;;5083829;28;19999;-85
2021/09/24 12:51:00;;;;;;;;;;;16.70;99.90;;;;;;5086681;28;20441;-85
2021/09/24 12:53:26;;;;;;;;;;;16.70;99.90;;;;;;5083959;28;20002;-86
2021/09/24 12:55:53;;;;;;;;;;;16.70;99.90;;;;;;5082994;28;19948;-85
2021/09/24 12:58:20;;;;;;;;;;;16.60;99.90;;;;;;5089087;28;20040;-85
2021/09/24 13:00:50;;;;;;;;;;;16.70;99.90;;;;;;5081266;28;19949;-85
2021/09/24 13:03:17;;;;;;;;;;;16.70;99.90;;;;;;5086831;28;19941;-86
2021/09/24 13:05:43;;;;;;;;;;;16.80;99.90;;;;;;5089483;28;19967;-85
2021/09/24 13:08:10;;;;;;;;;;;16.80;99.90;;;;;;5085723;28;19956;-86
2021/09/24 13:10:36;;;;;;;;;;;16.80;99.90;;;;;;5085438;28;19984;-85
2021/09/24 13:13:03;;;;;;;;;;;16.80;99.90;;;;;;5085572;28;19938;-86
2021/09/24 13:15:31;;;;;;;;;;;16.90;99.90;;;;;;5086051;28;19952;-86
2021/09/24 13:18:03;;;;;;;;;;;17.00;99.90;;;;;;5086638;28;20031;-86
2021/09/24 13:20:30;;;;;;;;;;;17.20;99.90;;;;;;5090870;28;19945;-85
2021/09/24 13:22:57;;;;;;;;;;;17.30;99.90;;;;;;5086880;28;19941;-85
2021/09/24 13:25:23;;;;;;;;;;;17.30;99.90;;;;;;5093890;28;19940;-85
2021/09/24 13:27:50;;;;;;;;;;;17.20;99.90;;;;;;5085075;28;19942;-85
2021/09/24 13:30:17;;;;;;;;;;;17.20;99.90;;;;;;5080677;28;20026;-85
2021/09/24 13:32:43;;;;;;;;;;;17.30;99.90;;;;;;5076190;28;19976;-85
2021/09/24 13:35:11;;;;;;;;;;;17.30;99.90;;;;;;5095141;28;19950;-85
2021/09/24 13:37:39;;;;;;;;;;;17.30;99.90;;;;;;5097933;28;19952;-85
2021/09/24 13:40:06;;;;;;;;;;;17.20;99.90;;;;;;5098972;28;19974;-85
2021/09/24 13:42:33;;;;;;;;;;;17.20;99.90;;;;;;5099121;28;19945;-86
2021/09/24 13:45:00;;;;;;;;;;;17.20;99.90;;;;;;5099061;28;19941;-87
2021/09/24 13:47:26;;;;;;;;;;;17.20;99.90;;;;;;5094929;28;19958;-85
2021/09/24 13:49:53;;;;;;;;;;;17.10;99.90;;;;;;5089270;28;19957;-85
2021/09/24 13:52:20;;;;;;;;;;;17.10;99.90;;;;;;5082697;28;19939;-85
2021/09/24 13:54:47;;;;;;;;;;;17.10;99.90;;;;;;5081292;28;19967;-85
2021/09/24 13:57:13;;;;;;;;;;;17.20;99.90;;;;;;5079227;28;19940;-85
2021/09/24 13:59:40;;;;;;;;;;;17.10;99.90;;;;;;5078245;28;20324;-85
2021/09/24 14:02:06;;;;;;;;;;;17.10;99.90;;;;;;5079578;28;19955;-85
2021/09/24 14:04:33;;;;;;;;;;;17.10;99.90;;;;;;5086548;28;19977;-85
2021/09/24 14:06:59;;;;;;;;;;;17.10;99.90;;;;;;5092853;28;19941;-85
2021/09/24 14:09:28;;;;;;;;;;;17.10;99.90;;;;;;5092707;28;19983;-85
2021/09/24 14:11:54;;;;;;;;;;;17.10;99.90;;;;;;5084301;28;19990;-85
2021/09/24 14:14:21;;;;;;;;;;;17.10;99.90;;;;;;5082918;28;19946;-84
2021/09/24 14:16:48;;;;;;;;;;;17.20;99.90;;;;;;5079691;28;19974;-85
2021/09/24 14:19:14;;;;;;;;;;;17.20;99.90;;;;;;5079073;28;19966;-85